Time;durP1;ratioP1;P1;durP2;ratioP2;P2;SDS_P1;SDS_P2;PMS_P1;PMS_P2;Temp;Humidity;BMP_temperature;BMP_pressure;BME280_temperature;BME280_humidity;BME280_pressure;Samples;Min_cycle;Max_cycle;Signal;HPM_P1;HPM_P2
2023/10/16 00:00:40;;;;;;;4.70;1.67;;;;;;;;;;5020197;28;20405;-58
2023/10/16 00:03:07;;;;;;;4.78;1.77;;;;;;;;;;5022098;28;20037;-58
2023/10/16 00:05:38;;;;;;;3.92;1.83;;;;;;;;;;5024060;28;20060;-58
2023/10/16 00:08:05;;;;;;;3.90;1.70;;;;;;;;;;5027843;28;20037;-58
2023/10/16 00:10:35;;;;;;;3.17;1.83;;;;;;;;;;5031623;28;20045;-59
2023/10/16 00:13:07;;;;;;;2.53;1.50;;;;;;;;;;5032831;28;20053;-58
2023/10/16 00:15:40;;;;;;;1.88;1.55;;;;;;;;;;5020309;28;20062;-58
2023/10/16 00:18:16;;;;;;;3.65;1.60;;;;;;;;;;5022317;28;20053;-58
2023/10/16 00:20:43;;;;;;;2.75;1.50;;;;;;;;;;5024044;28;20037;-58
2023/10/16 00:23:12;;;;;;;3.42;1.60;;;;;;;;;;5023719;28;20061;-59
2023/10/16 00:25:43;;;;;;;3.53;1.35;;;;;;;;;;5022869;28;20038;-58
2023/10/16 00:28:10;;;;;;;3.92;1.65;;;;;;;;;;5019100;28;20040;-58
2023/10/16 00:30:40;;;;;;;2.50;1.77;;;;;;;;;;5023656;28;20045;-58
2023/10/16 00:33:13;;;;;;;2.30;1.80;;;;;;;;;;5025044;28;20041;-59
2023/10/16 00:35:41;;;;;;;2.75;1.63;;;;;;;;;;5022460;28;20060;-58
2023/10/16 00:38:36;;;;;;;4.50;1.77;;;;;;;;;;5020899;28;20493;-59
2023/10/16 00:41:28;;;;;;;2.05;1.20;;;;;;;;;;5021055;28;20417;-59
2023/10/16 00:43:48;;;;;;;1.95;1.65;;;;;;;;;;5035653;28;20056;-58
2023/10/16 00:46:36;;;;;;;2.42;1.50;;;;;;;;;;5020775;28;20493;-59
2023/10/16 00:49:06;;;;;;;3.40;1.50;;;;;;;;;;5023602;28;20494;-58
2023/10/16 00:51:39;;;;;;;5.85;1.75;;;;;;;;;;5021992;28;20049;-58
2023/10/16 00:54:18;;;;;;;2.92;1.50;;;;;;;;;;5023267;28;20219;-58
2023/10/16 00:56:47;;;;;;;2.88;1.80;;;;;;;;;;5018887;28;20257;-59
2023/10/16 00:59:16;;;;;;;2.60;1.88;;;;;;;;;;5018535;28;20038;-59
2023/10/16 01:01:46;;;;;;;3.33;1.65;;;;;;;;;;5009827;28;20060;-58
2023/10/16 01:04:19;;;;;;;1.90;1.50;;;;;;;;;;5021068;28;20045;-58
2023/10/16 01:06:46;;;;;;;3.72;1.63;;;;;;;;;;5022307;28;20037;-58
2023/10/16 01:09:22;;;;;;;3.28;1.63;;;;;;;;;;5021589;28;20108;-58
2023/10/16 01:11:52;;;;;;;3.80;1.63;;;;;;;;;;5030199;28;20033;-59
2023/10/16 01:14:18;;;;;;;;;;;;;;;;;;5023791;28;20418;-59
2023/10/16 01:16:46;;;;;;;2.83;1.60;;;;;;;;;;5020587;28;19920;-58
2023/10/16 01:19:17;;;;;;;2.92;1.77;;;;;;;;;;5022586;28;20489;-57
2023/10/16 01:21:46;;;;;;;2.60;1.60;;;;;;;;;;5023645;28;20050;-57
2023/10/16 01:24:12;;;;;;;2.40;1.65;;;;;;;;;;5018681;28;20050;-59
2023/10/16 01:26:40;;;;;;;1.48;1.33;;;;;;;;;;5019469;28;20174;-59
2023/10/16 01:29:08;;;;;;;2.13;1.10;;;;;;;;;;5013925;28;20026;-58
2023/10/16 01:31:36;;;;;;;2.72;1.50;;;;;;;;;;5012636;28;20034;-59
2023/10/16 01:34:10;;;;;;;4.75;1.50;;;;;;;;;;5015548;28;20552;-59
2023/10/16 01:36:37;;;;;;;2.70;1.40;;;;;;;;;;5017382;28;20046;-58
2023/10/16 01:39:35;;;;;;;1.55;1.30;;;;;;;;;;5017375;28;20030;-59
2023/10/16 01:41:53;;;;;;;3.95;1.60;;;;;;;;;;5021748;28;20482;-59
2023/10/16 01:44:19;;;;;;;1.77;1.30;;;;;;;;;;5015246;28;20034;-59
2023/10/16 01:46:47;;;;;;;3.42;1.70;;;;;;;;;;5023836;28;20519;-59
2023/10/16 01:49:13;;;;;;;3.75;1.38;;;;;;;;;;5023207;28;20045;-58
2023/10/16 01:51:43;;;;;;;3.33;1.40;;;;;;;;;;5026391;28;20045;-58
2023/10/16 01:54:14;;;;;;;2.25;1.45;;;;;;;;;;5021080;28;20046;-57
2023/10/16 01:56:41;;;;;;;2.35;1.60;;;;;;;;;;5020563;28;20054;-58
2023/10/16 01:59:07;;;;;;;2.63;1.42;;;;;;;;;;5021588;28;20045;-57
2023/10/16 02:01:34;;;;;;;2.35;1.52;;;;;;;;;;5018214;28;20025;-58
2023/10/16 02:04:03;;;;;;;2.28;1.40;;;;;;;;;;5022765;28;20033;-58
2023/10/16 02:06:29;;;;;;;2.42;1.50;;;;;;;;;;5018970;28;20556;-58
2023/10/16 02:08:56;;;;;;;2.40;1.60;;;;;;;;;;5025449;28;20041;-59
2023/10/16 02:11:23;;;;;;;3.92;2.20;;;;;;;;;;5020195;28;20073;-57
2023/10/16 02:13:49;;;;;;;3.72;2.30;;;;;;;;;;5022218;28;20056;-58
2023/10/16 02:16:17;;;;;;;4.05;2.28;;;;;;;;;;5024577;28;20049;-59
2023/10/16 02:18:46;;;;;;;2.60;1.75;;;;;;;;;;5027966;28;20493;-58
2023/10/16 02:21:13;;;;;;;2.45;1.80;;;;;;;;;;5020935;28;20046;-57
2023/10/16 02:23:46;;;;;;;1.83;1.53;;;;;;;;;;5026454;28;20053;-59
2023/10/16 02:26:18;;;;;;;3.15;1.70;;;;;;;;;;5020215;28;20037;-58
2023/10/16 02:28:53;;;;;;;2.40;1.52;;;;;;;;;;5021515;28;20030;-57
2023/10/16 02:31:20;;;;;;;4.03;1.90;;;;;;;;;;5018377;28;20060;-58
2023/10/16 02:33:54;;;;;;;2.20;1.45;;;;;;;;;;5019736;28;20528;-58
2023/10/16 02:36:21;;;;;;;3.10;1.60;;;;;;;;;;5020527;28;20033;-58
2023/10/16 02:38:48;;;;;;;2.17;1.65;;;;;;;;;;5015853;28;20033;-58
2023/10/16 02:41:16;;;;;;;1.60;1.50;;;;;;;;;;5023413;28;20041;-58
2023/10/16 02:43:42;;;;;;;6.35;1.80;;;;;;;;;;5025363;28;20084;-58
2023/10/16 02:46:11;;;;;;;2.65;1.70;;;;;;;;;;5023703;28;20041;-58
2023/10/16 02:48:43;;;;;;;2.83;1.90;;;;;;;;;;5024741;28;20041;-58
2023/10/16 02:51:10;;;;;;;2.13;1.60;;;;;;;;;;5022443;28;20029;-58
2023/10/16 02:53:41;;;;;;;4.18;1.90;;;;;;;;;;5022764;28;20049;-58
2023/10/16 02:56:17;;;;;;;2.75;1.70;;;;;;;;;;5009546;28;20079;-58
2023/10/16 02:58:46;;;;;;;2.83;1.58;;;;;;;;;;5021511;28;20045;-59
2023/10/16 03:01:21;;;;;;;2.80;1.80;;;;;;;;;;5025303;28;20046;-57
2023/10/16 03:03:49;;;;;;;3.10;2.05;;;;;;;;;;5024717;28;20037;-58
2023/10/16 03:06:16;;;;;;;3.20;1.80;;;;;;;;;;5023389;28;20424;-58
2023/10/16 03:08:49;;;;;;;2.70;2.00;;;;;;;;;;5024246;28;20045;-58
2023/10/16 03:11:16;;;;;;;2.13;1.70;;;;;;;;;;5025573;28;20030;-58
2023/10/16 03:13:56;;;;;;;3.92;1.50;;;;;;;;;;5022153;28;20503;-58
2023/10/16 03:16:26;;;;;;;1.77;1.50;;;;;;;;;;5018245;28;20489;-58
2023/10/16 03:19:03;;;;;;;2.13;1.70;;;;;;;;;;5019654;28;20425;-59
2023/10/16 03:21:31;;;;;;;3.58;1.60;;;;;;;;;;5019103;28;20519;-58
2023/10/16 03:23:58;;;;;;;2.67;1.70;;;;;;;;;;5018993;28;20451;-58
2023/10/16 03:28:54;;;;;;;3.00;1.80;;;;;;;;;;5026384;28;20052;-58
2023/10/16 03:31:21;;;;;;;1.55;1.40;;;;;;;;;;5018006;28;20029;-58
2023/10/16 03:33:50;;;;;;;3.95;1.40;;;;;;;;;;5014245;28;20448;-58
2023/10/16 03:36:17;;;;;;;4.25;1.70;;;;;;;;;;5017952;28;20041;-58
2023/10/16 03:38:43;;;;;;;2.95;1.60;;;;;;;;;;5022446;28;20069;-57
2023/10/16 03:43:58;;;;;;;2.92;1.67;;;;;;;;;;5021993;28;20324;-58
2023/10/16 03:46:28;;;;;;;3.28;1.90;;;;;;;;;;5024601;28;20045;-58
2023/10/16 03:48:54;;;;;;;3.13;1.70;;;;;;;;;;5023229;28;20551;-58
2023/10/16 03:51:21;;;;;;;3.45;1.40;;;;;;;;;;5026120;28;20044;-57
2023/10/16 03:53:50;;;;;;;3.38;2.05;;;;;;;;;;5022915;28;20052;-58
2023/10/16 03:56:17;;;;;;;3.97;1.88;;;;;;;;;;5021828;28;20539;-57
2023/10/16 03:58:46;;;;;;;3.25;1.88;;;;;;;;;;5024976;28;20525;-58
2023/10/16 04:01:23;;;;;;;3.28;2.05;;;;;;;;;;5022127;28;20033;-58
2023/10/16 04:03:56;;;;;;;3.55;1.65;;;;;;;;;;5023029;28;20443;-59
2023/10/16 04:06:24;;;;;;;1.90;1.60;;;;;;;;;;5022178;28;20038;-58
2023/10/16 04:08:53;;;;;;;2.33;1.50;;;;;;;;;;5024424;28;20547;-55
2023/10/16 04:11:21;;;;;;;3.22;1.52;;;;;;;;;;5020709;28;20048;-58
2023/10/16 04:13:52;;;;;;;2.50;1.30;;;;;;;;;;5020516;28;20037;-58
2023/10/16 04:24:45;;;;;;;2.58;1.40;;;;;;;;;;5016199;28;20048;-58
2023/10/16 04:30:10;;;;;;;2.63;1.45;;;;;;;;;;5015842;28;20532;-58
2023/10/16 04:38:27;;;;;;;3.00;1.33;;;;;;;;;;5023521;28;20076;-57
2023/10/16 04:46:23;;;;;;;2.00;1.70;;;;;;;;;;5026492;28;20041;-58
2023/10/16 04:48:50;;;;;;;4.00;1.60;;;;;;;;;;5028522;28;20060;-57
2023/10/16 04:51:22;;;;;;;5.03;2.10;;;;;;;;;;5026586;28;20049;-58
2023/10/16 04:53:59;;;;;;;3.67;2.42;;;;;;;;;;5030161;28;20420;-58
2023/10/16 05:02:10;;;;;;;3.60;1.88;;;;;;;;;;5023532;28;20062;-59
2023/10/16 05:07:37;;;;;;;3.53;2.08;;;;;;;;;;5018654;28;20041;-57
2023/10/16 05:10:18;;;;;;;5.35;2.45;;;;;;;;;;5018358;28;20034;-57
2023/10/16 05:15:41;;;;;;;8.73;3.25;;;;;;;;;;5020132;28;20057;-57
2023/10/16 05:18:20;;;;;;;6.45;3.55;;;;;;;;;;5015894;28;20053;-58
2023/10/16 05:21:05;;;;;;;5.95;3.60;;;;;;;;;;5025933;28;20524;-57
2023/10/16 06:15:48;;;;;;;4.00;2.65;;;;;;;;;;5019081;28;20045;-58
2023/10/16 06:18:15;;;;;;;8.00;3.80;;;;;;;;;;5022184;28;20034;-58
2023/10/16 06:20:43;;;;;;;7.07;3.35;;;;;;;;;;5018228;28;20056;-58
2023/10/16 06:23:11;;;;;;;9.00;4.88;;;;;;;;;;5018945;28;20038;-56
2023/10/16 06:25:37;;;;;;;14.40;6.65;;;;;;;;;;5017879;28;20041;-57
2023/10/16 06:28:11;;;;;;;7.45;4.30;;;;;;;;;;5016806;28;20057;-58
2023/10/16 06:30:38;;;;;;;16.88;6.68;;;;;;;;;;5022188;28;20049;-58
2023/10/16 06:33:05;;;;;;;10.43;6.38;;;;;;;;;;5018058;28;20049;-58
2023/10/16 06:35:32;;;;;;;9.38;5.90;;;;;;;;;;5025203;28;20045;-58
2023/10/16 06:38:00;;;;;;;8.80;5.25;;;;;;;;;;5025542;28;20045;-58
2023/10/16 06:40:27;;;;;;;11.90;7.60;;;;;;;;;;5026135;28;20037;-57
2023/10/16 06:45:55;;;;;;;5.68;3.10;;;;;;;;;;5026391;28;20501;-62
2023/10/16 06:48:21;;;;;;;4.53;2.65;;;;;;;;;;5021706;28;20029;-57
2023/10/16 06:50:54;;;;;;;3.95;2.42;;;;;;;;;;5024912;28;20060;-58
2023/10/16 06:53:23;;;;;;;5.35;2.70;;;;;;;;;;5022617;28;20520;-58
2023/10/16 06:55:52;;;;;;;6.63;3.00;;;;;;;;;;5021365;28;20041;-58
2023/10/16 06:58:21;;;;;;;9.45;3.92;;;;;;;;;;5024279;28;20049;-58
2023/10/16 07:00:48;;;;;;;8.82;4.95;;;;;;;;;;5026068;28;20033;-58
2023/10/16 07:03:15;;;;;;;5.47;3.50;;;;;;;;;;5027416;28;20064;-58
2023/10/16 07:05:44;;;;;;;13.80;6.75;;;;;;;;;;5024630;28;20049;-58
2023/10/16 07:08:20;;;;;;;13.77;5.80;;;;;;;;;;5021598;28;20033;-58
2023/10/16 07:11:03;;;;;;;6.68;4.28;;;;;;;;;;5022362;28;20040;-58
2023/10/16 07:13:32;;;;;;;6.45;3.97;;;;;;;;;;5019012;28;20050;-58
2023/10/16 07:16:02;;;;;;;5.40;3.75;;;;;;;;;;5019673;28;20025;-58
2023/10/16 07:18:32;;;;;;;9.10;4.95;;;;;;;;;;5019906;28;20045;-58
2023/10/16 07:23:29;;;;;;;8.93;4.35;;;;;;;;;;5023420;28;19917;-58
2023/10/16 07:25:58;;;;;;;7.70;4.38;;;;;;;;;;5022375;28;20570;-57
2023/10/16 07:28:28;;;;;;;7.95;4.90;;;;;;;;;;5009833;28;20032;-58
2023/10/16 07:30:59;;;;;;;8.20;5.30;;;;;;;;;;5023979;28;20038;-58
2023/10/16 07:33:26;;;;;;;7.53;4.90;;;;;;;;;;5027494;28;20029;-58
2023/10/16 07:35:55;;;;;;;9.73;5.20;;;;;;;;;;5026987;28;20524;-58
2023/10/16 07:38:28;;;;;;;8.38;5.30;;;;;;;;;;5029185;28;20044;-58
2023/10/16 07:40:56;;;;;;;8.20;5.45;;;;;;;;;;5028539;28;20390;-58
2023/10/16 07:43:27;;;;;;;10.38;5.30;;;;;;;;;;5030960;28;20029;-58
2023/10/16 07:46:16;;;;;;;8.25;4.85;;;;;;;;;;5026348;28;20053;-58
2023/10/16 07:48:44;;;;;;;7.88;5.07;;;;;;;;;;5025644;28;20053;-57
2023/10/16 07:51:19;;;;;;;7.30;5.07;;;;;;;;;;5026861;28;20029;-57
2023/10/16 07:53:49;;;;;;;11.32;5.82;;;;;;;;;;5023579;28;20037;-57
2023/10/16 07:58:56;;;;;;;7.45;4.63;;;;;;;;;;5025800;28;20612;-57
2023/10/16 08:04:35;;;;;;;6.95;5.20;;;;;;;;;;5025673;28;20025;-59
2023/10/16 08:07:04;;;;;;;8.60;4.82;;;;;;;;;;5020138;28;20057;-57
2023/10/16 08:12:18;;;;;;;7.13;4.70;;;;;;;;;;5024116;28;20044;-58
2023/10/16 08:14:46;;;;;;;8.23;4.80;;;;;;;;;;5023139;28;20053;-57
2023/10/16 08:17:16;;;;;;;6.03;3.75;;;;;;;;;;5019620;28;20045;-57
2023/10/16 08:19:44;;;;;;;6.75;3.60;;;;;;;;;;5024129;28;20406;-57
2023/10/16 08:22:13;;;;;;;8.77;4.22;;;;;;;;;;5018875;28;20045;-58
2023/10/16 08:24:43;;;;;;;8.85;4.90;;;;;;;;;;5021725;28;20048;-57
2023/10/16 08:27:23;;;;;;;8.82;6.40;;;;;;;;;;5023563;28;20045;-58
2023/10/16 08:29:58;;;;;;;9.45;6.05;;;;;;;;;;5033032;28;20045;-58
2023/10/16 08:32:43;;;;;;;8.43;5.60;;;;;;;;;;5010239;28;20045;-58
2023/10/16 08:35:10;;;;;;;10.05;4.82;;;;;;;;;;5026156;28;20045;-58
2023/10/16 08:37:41;;;;;;;14.30;6.22;;;;;;;;;;5025694;28;20037;-58
2023/10/16 08:40:57;;;;;;;10.77;6.32;;;;;;;;;;5026861;28;20045;-56
2023/10/16 08:43:00;;;;;;;10.35;5.63;;;;;;;;;;5026655;28;20033;-58
2023/10/16 08:45:27;;;;;;;;;;;;;;;;;;5026432;28;20037;-57
2023/10/16 08:47:55;;;;;;;7.97;4.88;;;;;;;;;;5025214;28;19913;-57
2023/10/16 08:50:40;;;;;;;8.50;6.13;;;;;;;;;;5024692;28;20046;-58
2023/10/16 08:56:09;;;;;;;8.18;5.63;;;;;;;;;;5023701;28;20056;-58
2023/10/16 08:58:39;;;;;;;8.98;5.18;;;;;;;;;;5022731;28;20061;-58
2023/10/16 09:01:07;;;;;;;6.97;4.78;;;;;;;;;;5021497;28;20044;-58
2023/10/16 09:03:42;;;;;;;10.32;6.10;;;;;;;;;;5019579;28;20049;-57
2023/10/16 09:06:08;;;;;;;9.05;6.00;;;;;;;;;;5017510;28;20032;-57
2023/10/16 09:08:35;;;;;;;10.57;5.45;;;;;;;;;;5017790;28;20045;-57
2023/10/16 09:11:06;;;;;;;10.50;5.72;;;;;;;;;;5017094;28;20049;-58
2023/10/16 09:13:35;;;;;;;10.13;5.25;;;;;;;;;;5016431;28;20102;-57
2023/10/16 09:16:14;;;;;;;;;;;;;;;;;;5015527;28;20053;-57
2023/10/16 09:18:40;;;;;;;7.85;4.70;;;;;;;;;;5018093;28;20292;-58
2023/10/16 09:21:13;;;;;;;7.97;4.88;;;;;;;;;;5020226;28;20527;-57
2023/10/16 09:23:40;;;;;;;8.15;4.57;;;;;;;;;;5020688;28;20536;-58
2023/10/16 09:26:10;;;;;;;7.65;5.78;;;;;;;;;;5022078;28;20489;-60
2023/10/16 09:28:38;;;;;;;10.63;5.78;;;;;;;;;;5026436;28;20037;-57
2023/10/16 09:31:06;;;;;;;8.15;5.43;;;;;;;;;;5024454;28;20413;-59
2023/10/16 09:33:35;;;;;;;6.38;5.00;;;;;;;;;;5024693;28;20034;-60
2023/10/16 09:36:20;;;;;;;6.78;4.70;;;;;;;;;;5026609;28;20468;-56
2023/10/16 09:38:56;;;;;;;6.90;4.53;;;;;;;;;;5025373;28;20497;-58
2023/10/16 09:44:07;;;;;;;9.45;6.07;;;;;;;;;;5024088;28;20033;-58
2023/10/16 09:49:10;;;;;;;8.20;5.43;;;;;;;;;;5023713;28;20056;-58
2023/10/16 09:51:36;;;;;;;8.68;4.85;;;;;;;;;;5024725;28;20493;-58
2023/10/16 09:54:02;;;;;;;7.35;5.15;;;;;;;;;;5022789;28;20038;-59
2023/10/16 09:56:40;;;;;;;8.50;4.18;;;;;;;;;;5019456;28;20041;-58
2023/10/16 09:59:22;;;;;;;6.65;4.85;;;;;;;;;;5022038;28;20033;-58
2023/10/16 10:01:51;;;;;;;6.50;4.75;;;;;;;;;;5020773;28;20042;-57
2023/10/16 10:04:24;;;;;;;5.78;4.40;;;;;;;;;;5022342;28;20397;-59
2023/10/16 10:07:00;;;;;;;6.15;5.00;;;;;;;;;;5017672;28;20049;-58
2023/10/16 10:09:41;;;;;;;5.90;4.55;;;;;;;;;;5021144;28;20449;-58
2023/10/16 10:12:41;;;;;;;7.93;5.32;;;;;;;;;;5023487;28;20056;-58
2023/10/16 10:15:20;;;;;;;8.63;5.00;;;;;;;;;;5015250;28;20038;-58
2023/10/16 10:17:48;;;;;;;6.45;4.40;;;;;;;;;;5015042;28;20037;-58
2023/10/16 10:20:23;;;;;;;6.88;4.68;;;;;;;;;;5022962;28;20025;-58
2023/10/16 10:22:54;;;;;;;5.22;4.32;;;;;;;;;;5018142;28;20041;-58
2023/10/16 10:25:37;;;;;;;8.13;4.30;;;;;;;;;;5026175;28;20029;-58
2023/10/16 10:28:11;;;;;;;5.15;4.07;;;;;;;;;;5026821;28;20532;-58
2023/10/16 10:30:43;;;;;;;8.25;4.55;;;;;;;;;;5027358;28;20129;-58
2023/10/16 10:33:11;;;;;;;8.70;4.53;;;;;;;;;;5021185;28;20045;-59
2023/10/16 10:35:43;;;;;;;6.07;4.20;;;;;;;;;;5029218;28;20033;-58
2023/10/16 10:38:29;;;;;;;6.30;4.05;;;;;;;;;;5028797;28;20053;-59
2023/10/16 10:41:08;;;;;;;5.40;3.60;;;;;;;;;;5029370;28;20034;-59
2023/10/16 10:43:44;;;;;;;7.32;3.78;;;;;;;;;;5027644;28;20050;-58
2023/10/16 10:46:11;;;;;;;6.97;4.15;;;;;;;;;;5024319;28;20037;-58
2023/10/16 10:48:39;;;;;;;5.72;3.67;;;;;;;;;;5027318;28;20061;-58
2023/10/16 10:51:13;;;;;;;5.82;4.28;;;;;;;;;;5026123;28;20108;-58
2023/10/16 10:54:06;;;;;;;3.55;2.90;;;;;;;;;;5024691;28;20413;-58
2023/10/16 10:56:47;;;;;;;6.22;3.70;;;;;;;;;;5025664;28;20049;-59
2023/10/16 10:59:47;;;;;;;21.08;8.93;;;;;;;;;;5025547;28;20036;-59
2023/10/16 11:04:45;;;;;;;3.67;2.60;;;;;;;;;;5020885;28;20049;-59
2023/10/16 11:07:11;;;;;;;5.30;2.85;;;;;;;;;;5018534;28;20042;-57
2023/10/16 11:09:38;;;;;;;4.20;3.00;;;;;;;;;;5020553;28;20529;-59
2023/10/16 11:12:08;;;;;;;3.15;2.80;;;;;;;;;;5022925;28;20504;-58
2023/10/16 11:14:38;;;;;;;;;;;;;;;;;;5024298;28;20044;-59
2023/10/16 11:17:07;;;;;;;3.85;1.83;;;;;;;;;;5028280;28;20423;-58
2023/10/16 11:19:47;;;;;;;1.40;1.30;;;;;;;;;;5024426;28;20036;-59
2023/10/16 11:22:27;;;;;;;2.58;1.48;;;;;;;;;;5029817;28;20076;-59
2023/10/16 11:24:54;;;;;;;;;;;;;;;;;;5028002;28;20038;-58
2023/10/16 11:27:20;;;;;;;3.10;1.20;;;;;;;;;;5027966;28;19913;-58
2023/10/16 11:29:47;;;;;;;1.70;1.10;;;;;;;;;;5026743;28;20053;-58
2023/10/16 11:32:17;;;;;;;1.92;1.48;;;;;;;;;;5027212;28;20448;-58
2023/10/16 11:34:58;;;;;;;2.22;1.40;;;;;;;;;;5026316;28;20057;-58
2023/10/16 11:37:25;;;;;;;3.47;1.27;;;;;;;;;;5026887;28;20040;-58
2023/10/16 11:39:56;;;;;;;3.10;1.85;;;;;;;;;;5029245;28;20040;-59
2023/10/16 11:42:24;;;;;;;4.15;1.67;;;;;;;;;;5025662;28;20033;-59
2023/10/16 11:44:51;;;;;;;2.67;1.58;;;;;;;;;;5024153;28;20036;-59
2023/10/16 11:47:18;;;;;;;3.50;1.42;;;;;;;;;;5025459;28;20405;-59
2023/10/16 11:49:53;;;;;;;2.35;1.77;;;;;;;;;;5027174;28;20088;-58
2023/10/16 11:52:21;;;;;;;2.03;1.50;;;;;;;;;;5024414;28;20033;-59
2023/10/16 11:54:57;;;;;;;3.35;1.38;;;;;;;;;;5023322;28;20037;-59
2023/10/16 11:57:27;;;;;;;1.70;1.02;;;;;;;;;;5019088;28;20049;-59
2023/10/16 11:59:55;;;;;;;1.08;0.88;;;;;;;;;;5019699;28;20025;-59
2023/10/16 12:02:29;;;;;;;1.80;1.10;;;;;;;;;;5019354;28;20046;-59
2023/10/16 12:04:57;;;;;;;1.60;1.00;;;;;;;;;;5021899;28;20366;-59
2023/10/16 12:07:25;;;;;;;1.92;1.23;;;;;;;;;;5021351;28;20037;-59
2023/10/16 12:09:52;;;;;;;1.65;1.20;;;;;;;;;;5016685;28;20071;-60
2023/10/16 12:12:22;;;;;;;2.72;1.17;;;;;;;;;;5023138;28;20052;-60
2023/10/16 12:14:49;;;;;;;2.25;0.90;;;;;;;;;;5023405;28;20056;-58
2023/10/16 12:17:21;;;;;;;1.80;0.95;;;;;;;;;;5028016;28;20405;-58
2023/10/16 12:19:47;;;;;;;2.70;1.10;;;;;;;;;;5025981;28;20494;-58
2023/10/16 12:22:20;;;;;;;1.58;1.13;;;;;;;;;;5028224;28;20409;-58
2023/10/16 12:24:47;;;;;;;3.30;1.10;;;;;;;;;;5025092;28;20025;-58
2023/10/16 12:27:17;;;;;;;2.45;1.27;;;;;;;;;;5028000;28;20045;-58
2023/10/16 12:29:44;;;;;;;;;;;;;;;;;;5019824;28;20053;-58
2023/10/16 12:32:10;;;;;;;1.75;0.90;;;;;;;;;;5022173;28;19924;-58
2023/10/16 12:34:36;;;;;;;2.15;0.85;;;;;;;;;;5023663;28;20033;-58
2023/10/16 12:37:06;;;;;;;1.30;1.00;;;;;;;;;;5026632;28;20033;-58
2023/10/16 12:39:43;;;;;;;1.67;0.90;;;;;;;;;;5026344;28;20029;-58
2023/10/16 12:42:10;;;;;;;1.52;0.98;;;;;;;;;;5026600;28;20040;-58
2023/10/16 12:44:36;;;;;;;1.25;0.93;;;;;;;;;;5023740;28;20037;-58
2023/10/16 12:47:02;;;;;;;2.35;1.10;;;;;;;;;;5024590;28;20052;-58
2023/10/16 12:49:28;;;;;;;2.15;1.00;;;;;;;;;;5023607;28;20263;-59
2023/10/16 12:51:54;;;;;;;1.90;1.05;;;;;;;;;;5023645;28;20057;-59
2023/10/16 12:54:24;;;;;;;1.45;0.90;;;;;;;;;;5020023;28;20398;-59
2023/10/16 12:56:52;;;;;;;2.38;1.15;;;;;;;;;;5019190;28;20054;-59
2023/10/16 12:59:19;;;;;;;1.02;0.80;;;;;;;;;;5018757;28;20064;-59
2023/10/16 13:01:49;;;;;;;1.85;0.80;;;;;;;;;;5018679;28;20065;-59
2023/10/16 13:04:17;;;;;;;1.70;0.80;;;;;;;;;;5017434;28;20033;-59
2023/10/16 13:06:43;;;;;;;1.40;0.80;;;;;;;;;;5017865;28;20037;-59
2023/10/16 13:09:15;;;;;;;1.98;1.17;;;;;;;;;;5026186;28;20040;-59
2023/10/16 13:11:42;;;;;;;1.27;0.88;;;;;;;;;;5024570;28;20061;-59
2023/10/16 13:14:09;;;;;;;1.23;0.82;;;;;;;;;;5021127;28;20046;-59
2023/10/16 13:16:35;;;;;;;2.78;1.20;;;;;;;;;;5025817;28;20057;-59
2023/10/16 13:19:02;;;;;;;1.45;0.82;;;;;;;;;;5025317;28;20686;-59
2023/10/16 13:21:34;;;;;;;2.35;1.00;;;;;;;;;;5027305;28;20041;-59
2023/10/16 13:24:06;;;;;;;1.73;0.80;;;;;;;;;;5022987;28;20398;-59
2023/10/16 13:26:36;;;;;;;1.85;1.10;;;;;;;;;;5023409;28;20045;-59
2023/10/16 13:29:07;;;;;;;1.85;0.90;;;;;;;;;;5025527;28;20045;-59
2023/10/16 13:31:41;;;;;;;1.90;0.93;;;;;;;;;;5024731;28;20037;-59
2023/10/16 13:34:11;;;;;;;1.40;0.73;;;;;;;;;;5023776;28;20029;-59
2023/10/16 13:36:37;;;;;;;;;;;;;;;;;;5026784;28;20042;-59
2023/10/16 13:39:10;;;;;;;3.20;1.05;;;;;;;;;;5027457;28;19913;-59
2023/10/16 13:41:53;;;;;;;1.17;0.85;;;;;;;;;;5024774;28;20054;-58
2023/10/16 13:44:22;;;;;;;1.48;0.90;;;;;;;;;;5024604;28;20482;-59
2023/10/16 13:46:52;;;;;;;3.42;1.10;;;;;;;;;;5025368;28;20449;-59
2023/10/16 13:49:18;;;;;;;0.93;0.73;;;;;;;;;;5022651;28;20037;-59
2023/10/16 13:51:45;;;;;;;2.20;1.20;;;;;;;;;;5023614;28;20042;-60
2023/10/16 13:54:12;;;;;;;1.30;0.90;;;;;;;;;;5025205;28;20036;-59
2023/10/16 13:56:39;;;;;;;2.67;1.02;;;;;;;;;;5020667;28;20034;-60
2023/10/16 13:59:06;;;;;;;2.65;1.25;;;;;;;;;;5020157;28;20045;-59
2023/10/16 14:01:38;;;;;;;3.28;1.10;;;;;;;;;;5021524;28;20045;-59
2023/10/16 14:04:11;;;;;;;3.92;1.40;;;;;;;;;;5018190;28;20046;-59
2023/10/16 14:06:40;;;;;;;2.60;1.05;;;;;;;;;;5032874;28;20040;-59
2023/10/16 14:09:28;;;;;;;;;;;;;;;;;;5026073;28;21524;-60
2023/10/16 14:11:59;;;;;;;1.45;1.00;;;;;;;;;;5028054;28;19913;-59
2023/10/16 14:14:27;;;;;;;2.15;1.25;;;;;;;;;;5030921;28;20042;-59
2023/10/16 14:17:02;;;;;;;1.67;0.90;;;;;;;;;;5008371;28;20089;-59
2023/10/16 14:19:29;;;;;;;2.75;1.15;;;;;;;;;;5030186;28;20050;-59
2023/10/16 14:21:57;;;;;;;3.75;2.78;;;;;;;;;;5027914;28;20049;-59
2023/10/16 14:24:25;;;;;;;5.80;3.97;;;;;;;;;;5027135;28;20535;-59
2023/10/16 14:26:55;;;;;;;2.28;1.48;;;;;;;;;;5028628;28;20287;-60
2023/10/16 14:29:22;;;;;;;1.92;1.17;;;;;;;;;;5026545;28;20033;-58
2023/10/16 14:31:51;;;;;;;1.10;0.90;;;;;;;;;;5027607;28;20064;-58
2023/10/16 14:34:21;;;;;;;1.90;1.40;;;;;;;;;;5027929;28;20041;-58
2023/10/16 14:36:52;;;;;;;3.03;1.40;;;;;;;;;;5028664;28;20029;-59
2023/10/16 14:39:20;;;;;;;1.60;1.08;;;;;;;;;;5030138;28;20025;-60
2023/10/16 14:41:47;;;;;;;1.48;0.95;;;;;;;;;;5028581;28;20060;-60
2023/10/16 14:44:13;;;;;;;3.17;2.10;;;;;;;;;;5030542;28;20036;-60
2023/10/16 14:46:40;;;;;;;2.55;1.58;;;;;;;;;;5026033;28;20413;-60
2023/10/16 14:49:09;;;;;;;2.30;1.35;;;;;;;;;;5025990;28;20045;-60
2023/10/16 14:51:39;;;;;;;1.50;1.10;;;;;;;;;;5022908;28;20402;-60
2023/10/16 14:54:06;;;;;;;1.67;0.90;;;;;;;;;;5024176;28;20666;-60
2023/10/16 14:56:42;;;;;;;1.15;1.05;;;;;;;;;;5021470;28;20401;-59
2023/10/16 14:59:13;;;;;;;1.42;0.98;;;;;;;;;;5020051;28;20514;-59
2023/10/16 15:01:39;;;;;;;1.15;1.00;;;;;;;;;;5021263;28;20041;-60
2023/10/16 15:04:08;;;;;;;3.78;2.00;;;;;;;;;;5020492;28;20068;-60
2023/10/16 15:06:35;;;;;;;1.65;1.30;;;;;;;;;;5023308;28;20541;-60
2023/10/16 15:09:09;;;;;;;2.15;0.98;;;;;;;;;;5024725;28;20045;-60
2023/10/16 15:11:36;;;;;;;1.23;1.00;;;;;;;;;;5030406;28;20044;-60
2023/10/16 15:14:03;;;;;;;1.27;1.10;;;;;;;;;;5027352;28;20535;-60
2023/10/16 15:16:29;;;;;;;2.33;1.20;;;;;;;;;;5026332;28;20056;-59
2023/10/16 15:18:56;;;;;;;2.03;1.08;;;;;;;;;;5027134;28;20045;-60
2023/10/16 15:21:22;;;;;;;1.80;1.10;;;;;;;;;;5025461;28;20044;-60
2023/10/16 15:23:49;;;;;;;1.67;1.20;;;;;;;;;;5023189;28;20033;-60
2023/10/16 15:26:15;;;;;;;1.73;1.30;;;;;;;;;;5020623;28;20544;-60
2023/10/16 15:28:41;;;;;;;1.83;1.15;;;;;;;;;;5027136;28;20053;-60
2023/10/16 15:31:07;;;;;;;1.13;1.02;;;;;;;;;;5025474;28;20037;-60
2023/10/16 15:33:33;;;;;;;2.30;1.90;;;;;;;;;;5025294;28;20044;-60
2023/10/16 15:36:00;;;;;;;1.80;1.10;;;;;;;;;;5028645;28;20053;-59
2023/10/16 15:38:28;;;;;;;1.67;1.17;;;;;;;;;;5026696;28;20037;-60
2023/10/16 15:40:55;;;;;;;4.18;1.60;;;;;;;;;;5028799;28;20041;-59
2023/10/16 15:43:22;;;;;;;3.35;1.30;;;;;;;;;;5025835;28;20404;-59
2023/10/16 15:45:50;;;;;;;1.52;1.00;;;;;;;;;;5024479;28;20068;-59
2023/10/16 15:48:17;;;;;;;1.77;1.00;;;;;;;;;;5023036;28;20049;-59
2023/10/16 15:50:45;;;;;;;1.33;0.80;;;;;;;;;;5024574;28;20034;-59
2023/10/16 15:53:11;;;;;;;0.90;0.80;;;;;;;;;;5025547;28;20040;-59
2023/10/16 15:55:38;;;;;;;2.33;1.58;;;;;;;;;;5024698;28;20038;-59
2023/10/16 15:58:05;;;;;;;3.38;1.92;;;;;;;;;;5025907;28;20547;-59
2023/10/16 16:00:37;;;;;;;2.95;1.35;;;;;;;;;;5022405;28;20038;-59
2023/10/16 16:03:08;;;;;;;2.22;1.27;;;;;;;;;;5023557;28;20037;-59
2023/10/16 16:05:35;;;;;;;1.85;0.90;;;;;;;;;;5023962;28;20029;-59
2023/10/16 16:08:04;;;;;;;2.63;0.82;;;;;;;;;;5026799;28;20049;-59
2023/10/16 16:10:34;;;;;;;2.25;0.98;;;;;;;;;;5028131;28;20044;-59
2023/10/16 16:13:01;;;;;;;0.73;0.70;;;;;;;;;;5023854;28;20037;-59
2023/10/16 16:15:28;;;;;;;2.00;0.82;;;;;;;;;;5025948;28;20041;-60
2023/10/16 16:17:54;;;;;;;2.95;1.10;;;;;;;;;;5022230;28;20041;-59
2023/10/16 16:20:21;;;;;;;1.42;1.02;;;;;;;;;;5026736;28;20033;-59
2023/10/16 16:22:50;;;;;;;1.90;1.33;;;;;;;;;;5024000;28;20029;-59
2023/10/16 16:25:18;;;;;;;15.45;1.92;;;;;;;;;;5025667;28;20041;-59
2023/10/16 16:27:46;;;;;;;1.98;1.27;;;;;;;;;;5044087;28;20029;-59
2023/10/16 16:30:13;;;;;;;2.25;0.95;;;;;;;;;;5046409;28;20510;-60
2023/10/16 16:32:40;;;;;;;2.25;1.10;;;;;;;;;;5040949;28;20028;-59
2023/10/16 16:35:07;;;;;;;2.03;1.10;;;;;;;;;;5042466;28;20107;-59
2023/10/16 16:37:33;;;;;;;2.00;1.33;;;;;;;;;;5039131;28;20145;-60
2023/10/16 16:40:06;;;;;;;1.63;1.42;;;;;;;;;;5029973;28;20497;-59
2023/10/16 16:42:36;;;;;;;2.30;1.60;;;;;;;;;;5039276;28;20037;-59
2023/10/16 16:45:03;;;;;;;2.67;1.50;;;;;;;;;;5037110;28;20041;-58
2023/10/16 16:47:30;;;;;;;3.67;1.48;;;;;;;;;;5030712;28;20101;-57
2023/10/16 16:49:57;;;;;;;0.98;0.80;;;;;;;;;;5038010;28;20050;-59
2023/10/16 16:52:25;;;;;;;3.53;1.50;;;;;;;;;;5035953;28;20033;-59
2023/10/16 16:54:53;;;;;;;7.35;2.90;;;;;;;;;;5036185;28;20060;-59
2023/10/16 16:57:21;;;;;;;6.65;3.97;;;;;;;;;;5041638;28;20053;-59
2023/10/16 16:59:49;;;;;;;2.45;1.88;;;;;;;;;;5045908;28;20033;-59